sensor_id;sensor_type;location;lat;lon;timestamp;P1;durP1;ratioP1;P2;durP2;ratioP2
55603;SDS011;41468;48.838;9.330;2023-05-02T00:01:40;5.50;;;5.10;;
55603;SDS011;41468;48.838;9.330;2023-05-02T00:04:07;5.00;;;4.50;;
55603;SDS011;41468;48.838;9.330;2023-05-02T00:06:33;5.33;;;4.40;;
55603;SDS011;41468;48.838;9.330;2023-05-02T00:09:00;5.03;;;4.23;;
55603;SDS011;41468;48.838;9.330;2023-05-02T00:11:27;4.90;;;4.57;;
55603;SDS011;41468;48.838;9.330;2023-05-02T00:13:54;5.00;;;4.60;;
55603;SDS011;41468;48.838;9.330;2023-05-02T00:16:20;5.97;;;4.40;;
55603;SDS011;41468;48.838;9.330;2023-05-02T00:18:47;6.47;;;4.10;;
55603;SDS011;41468;48.838;9.330;2023-05-02T00:21:14;4.37;;;4.07;;
55603;SDS011;41468;48.838;9.330;2023-05-02T00:23:41;4.70;;;4.30;;
55603;SDS011;41468;48.838;9.330;2023-05-02T00:26:08;5.00;;;4.60;;
55603;SDS011;41468;48.838;9.330;2023-05-02T00:28:35;5.20;;;4.80;;
55603;SDS011;41468;48.838;9.330;2023-05-02T00:31:03;3.90;;;3.60;;
55603;SDS011;41468;48.838;9.330;2023-05-02T00:33:30;5.57;;;4.47;;
55603;SDS011;41468;48.838;9.330;2023-05-02T00:35:57;4.33;;;4.03;;
55603;SDS011;41468;48.838;9.330;2023-05-02T00:38:23;4.53;;;4.20;;
55603;SDS011;41468;48.838;9.330;2023-05-02T00:40:50;4.53;;;4.13;;
55603;SDS011;41468;48.838;9.330;2023-05-02T00:43:18;4.33;;;4.03;;
55603;SDS011;41468;48.838;9.330;2023-05-02T00:45:46;4.63;;;4.23;;
55603;SDS011;41468;48.838;9.330;2023-05-02T00:48:12;5.07;;;4.67;;
55603;SDS011;41468;48.838;9.330;2023-05-02T00:50:40;4.23;;;3.80;;
55603;SDS011;41468;48.838;9.330;2023-05-02T00:53:08;4.67;;;4.13;;
55603;SDS011;41468;48.838;9.330;2023-05-02T00:55:36;4.37;;;4.07;;
55603;SDS011;41468;48.838;9.330;2023-05-02T00:58:04;3.77;;;3.57;;
55603;SDS011;41468;48.838;9.330;2023-05-02T01:00:45;4.57;;;4.03;;
55603;SDS011;41468;48.838;9.330;2023-05-02T01:03:35;5.70;;;4.17;;
55603;SDS011;41468;48.838;9.330;2023-05-02T01:06:13;4.10;;;3.80;;
55603;SDS011;41468;48.838;9.330;2023-05-02T01:08:54;4.00;;;3.70;;
55603;SDS011;41468;48.838;9.330;2023-05-02T01:14:10;4.77;;;4.00;;
55603;SDS011;41468;48.838;9.330;2023-05-02T01:16:38;4.57;;;4.17;;
55603;SDS011;41468;48.838;9.330;2023-05-02T01:19:11;4.47;;;4.17;;
55603;SDS011;41468;48.838;9.330;2023-05-02T01:21:45;4.50;;;4.00;;
55603;SDS011;41468;48.838;9.330;2023-05-02T01:24:17;3.90;;;3.60;;
55603;SDS011;41468;48.838;9.330;2023-05-02T01:27:17;4.30;;;3.83;;
55603;SDS011;41468;48.838;9.330;2023-05-02T01:30:07;4.20;;;3.90;;
55603;SDS011;41468;48.838;9.330;2023-05-02T01:32:35;4.80;;;4.40;;
55603;SDS011;41468;48.838;9.330;2023-05-02T01:35:05;4.57;;;4.10;;
55603;SDS011;41468;48.838;9.330;2023-05-02T01:37:34;4.70;;;4.30;;
55603;SDS011;41468;48.838;9.330;2023-05-02T01:40:03;4.30;;;3.90;;
55603;SDS011;41468;48.838;9.330;2023-05-02T01:42:33;4.67;;;4.27;;
55603;SDS011;41468;48.838;9.330;2023-05-02T01:45:03;3.80;;;3.53;;
55603;SDS011;41468;48.838;9.330;2023-05-02T01:47:32;4.10;;;3.57;;
55603;SDS011;41468;48.838;9.330;2023-05-02T01:50:02;4.60;;;4.20;;
55603;SDS011;41468;48.838;9.330;2023-05-02T01:52:31;4.63;;;3.80;;
55603;SDS011;41468;48.838;9.330;2023-05-02T01:54:58;7.40;;;3.90;;
55603;SDS011;41468;48.838;9.330;2023-05-02T01:57:26;4.03;;;3.73;;
55603;SDS011;41468;48.838;9.330;2023-05-02T01:59:56;3.90;;;3.60;;
55603;SDS011;41468;48.838;9.330;2023-05-02T02:02:25;4.07;;;3.60;;
55603;SDS011;41468;48.838;9.330;2023-05-02T02:04:53;4.40;;;4.10;;
55603;SDS011;41468;48.838;9.330;2023-05-02T02:07:22;4.80;;;4.20;;
55603;SDS011;41468;48.838;9.330;2023-05-02T02:09:49;4.43;;;4.03;;
55603;SDS011;41468;48.838;9.330;2023-05-02T02:15:02;4.33;;;3.97;;
55603;SDS011;41468;48.838;9.330;2023-05-02T02:17:54;4.43;;;4.03;;
55603;SDS011;41468;48.838;9.330;2023-05-02T02:20:24;3.90;;;3.60;;
55603;SDS011;41468;48.838;9.330;2023-05-02T02:22:53;3.90;;;3.60;;
55603;SDS011;41468;48.838;9.330;2023-05-02T02:25:23;5.40;;;4.10;;
55603;SDS011;41468;48.838;9.330;2023-05-02T02:27:52;4.37;;;4.07;;
55603;SDS011;41468;48.838;9.330;2023-05-02T02:30:19;5.43;;;4.03;;
55603;SDS011;41468;48.838;9.330;2023-05-02T02:32:51;4.37;;;4.03;;
55603;SDS011;41468;48.838;9.330;2023-05-02T02:35:18;4.00;;;3.70;;
55603;SDS011;41468;48.838;9.330;2023-05-02T02:37:58;7.00;;;3.93;;
55603;SDS011;41468;48.838;9.330;2023-05-02T02:40:38;4.73;;;4.33;;
55603;SDS011;41468;48.838;9.330;2023-05-02T02:46:07;4.33;;;3.93;;
55603;SDS011;41468;48.838;9.330;2023-05-02T02:49:12;5.17;;;4.70;;
55603;SDS011;41468;48.838;9.330;2023-05-02T02:51:57;4.17;;;3.77;;
55603;SDS011;41468;48.838;9.330;2023-05-02T02:54:33;4.53;;;4.23;;
55603;SDS011;41468;48.838;9.330;2023-05-02T02:57:50;4.50;;;4.20;;
55603;SDS011;41468;48.838;9.330;2023-05-02T03:02:46;5.40;;;4.13;;
55603;SDS011;41468;48.838;9.330;2023-05-02T03:05:13;4.07;;;3.70;;
55603;SDS011;41468;48.838;9.330;2023-05-02T03:07:46;4.57;;;4.13;;
55603;SDS011;41468;48.838;9.330;2023-05-02T03:10:13;4.43;;;4.13;;
55603;SDS011;41468;48.838;9.330;2023-05-02T03:12:39;4.47;;;4.07;;
55603;SDS011;41468;48.838;9.330;2023-05-02T03:15:28;4.77;;;4.47;;
55603;SDS011;41468;48.838;9.330;2023-05-02T03:18:17;4.73;;;4.33;;
55603;SDS011;41468;48.838;9.330;2023-05-02T03:20:44;4.43;;;4.03;;
55603;SDS011;41468;48.838;9.330;2023-05-02T03:23:11;4.73;;;4.33;;
55603;SDS011;41468;48.838;9.330;2023-05-02T03:25:38;4.67;;;4.33;;
55603;SDS011;41468;48.838;9.330;2023-05-02T03:28:04;5.00;;;4.47;;
55603;SDS011;41468;48.838;9.330;2023-05-02T03:30:31;4.93;;;4.43;;
55603;SDS011;41468;48.838;9.330;2023-05-02T03:32:58;4.60;;;4.20;;
55603;SDS011;41468;48.838;9.330;2023-05-02T03:35:25;6.90;;;4.53;;
55603;SDS011;41468;48.838;9.330;2023-05-02T03:38:03;7.43;;;4.53;;
55603;SDS011;41468;48.838;9.330;2023-05-02T03:40:35;5.27;;;4.77;;
55603;SDS011;41468;48.838;9.330;2023-05-02T03:43:02;5.00;;;4.50;;
55603;SDS011;41468;48.838;9.330;2023-05-02T03:45:29;4.60;;;4.20;;
55603;SDS011;41468;48.838;9.330;2023-05-02T03:47:56;4.77;;;4.37;;
55603;SDS011;41468;48.838;9.330;2023-05-02T03:50:22;4.50;;;4.20;;
55603;SDS011;41468;48.838;9.330;2023-05-02T03:52:49;4.27;;;3.97;;
55603;SDS011;41468;48.838;9.330;2023-05-02T03:55:16;5.07;;;4.63;;
55603;SDS011;41468;48.838;9.330;2023-05-02T03:57:43;4.80;;;4.30;;
55603;SDS011;41468;48.838;9.330;2023-05-02T04:00:10;5.07;;;4.30;;
55603;SDS011;41468;48.838;9.330;2023-05-02T04:02:37;4.70;;;4.30;;
55603;SDS011;41468;48.838;9.330;2023-05-02T04:05:04;4.07;;;3.77;;
55603;SDS011;41468;48.838;9.330;2023-05-02T04:07:31;4.60;;;4.03;;
55603;SDS011;41468;48.838;9.330;2023-05-02T04:10:09;4.97;;;4.57;;
55603;SDS011;41468;48.838;9.330;2023-05-02T04:12:41;4.60;;;4.20;;
55603;SDS011;41468;48.838;9.330;2023-05-02T04:15:11;4.87;;;4.07;;
55603;SDS011;41468;48.838;9.330;2023-05-02T04:17:38;4.77;;;4.23;;
55603;SDS011;41468;48.838;9.330;2023-05-02T04:20:05;4.83;;;4.33;;
55603;SDS011;41468;48.838;9.330;2023-05-02T04:22:33;5.13;;;4.73;;
55603;SDS011;41468;48.838;9.330;2023-05-02T04:25:00;4.73;;;4.10;;
55603;SDS011;41468;48.838;9.330;2023-05-02T04:27:33;4.27;;;3.97;;
55603;SDS011;41468;48.838;9.330;2023-05-02T04:29:59;5.37;;;4.10;;
55603;SDS011;41468;48.838;9.330;2023-05-02T04:32:27;5.03;;;4.53;;
55603;SDS011;41468;48.838;9.330;2023-05-02T04:34:53;4.60;;;4.30;;
55603;SDS011;41468;48.838;9.330;2023-05-02T04:37:21;5.00;;;4.60;;
55603;SDS011;41468;48.838;9.330;2023-05-02T04:39:48;4.87;;;4.40;;
55603;SDS011;41468;48.838;9.330;2023-05-02T04:42:14;4.57;;;4.17;;
55603;SDS011;41468;48.838;9.330;2023-05-02T04:44:41;5.70;;;4.57;;
55603;SDS011;41468;48.838;9.330;2023-05-02T04:47:08;4.90;;;4.50;;
55603;SDS011;41468;48.838;9.330;2023-05-02T04:49:44;5.00;;;4.37;;
55603;SDS011;41468;48.838;9.330;2023-05-02T04:52:11;4.70;;;4.20;;
55603;SDS011;41468;48.838;9.330;2023-05-02T04:54:38;4.60;;;4.20;;
55603;SDS011;41468;48.838;9.330;2023-05-02T04:57:05;4.30;;;4.00;;
55603;SDS011;41468;48.838;9.330;2023-05-02T04:59:33;4.67;;;4.33;;
55603;SDS011;41468;48.838;9.330;2023-05-02T05:02:00;4.73;;;4.30;;
55603;SDS011;41468;48.838;9.330;2023-05-02T05:04:28;5.03;;;4.53;;
55603;SDS011;41468;48.838;9.330;2023-05-02T05:06:54;4.70;;;4.30;;
55603;SDS011;41468;48.838;9.330;2023-05-02T05:09:22;4.80;;;4.40;;
55603;SDS011;41468;48.838;9.330;2023-05-02T05:11:48;6.83;;;4.27;;
55603;SDS011;41468;48.838;9.330;2023-05-02T05:14:15;4.50;;;4.20;;
55603;SDS011;41468;48.838;9.330;2023-05-02T05:16:42;4.80;;;4.10;;
55603;SDS011;41468;48.838;9.330;2023-05-02T05:19:09;4.63;;;4.20;;
55603;SDS011;41468;48.838;9.330;2023-05-02T05:21:36;5.00;;;4.50;;
55603;SDS011;41468;48.838;9.330;2023-05-02T05:24:03;5.13;;;4.57;;
55603;SDS011;41468;48.838;9.330;2023-05-02T05:26:34;5.60;;;4.90;;
55603;SDS011;41468;48.838;9.330;2023-05-02T05:29:01;5.60;;;4.47;;
55603;SDS011;41468;48.838;9.330;2023-05-02T05:31:28;5.07;;;4.10;;
55603;SDS011;41468;48.838;9.330;2023-05-02T05:33:55;5.30;;;4.80;;
55603;SDS011;41468;48.838;9.330;2023-05-02T05:36:22;4.90;;;4.50;;
55603;SDS011;41468;48.838;9.330;2023-05-02T05:38:49;5.80;;;5.37;;
55603;SDS011;41468;48.838;9.330;2023-05-02T05:41:16;5.60;;;5.10;;
55603;SDS011;41468;48.838;9.330;2023-05-02T05:43:43;6.77;;;4.87;;
55603;SDS011;41468;48.838;9.330;2023-05-02T05:46:10;6.20;;;5.23;;
55603;SDS011;41468;48.838;9.330;2023-05-02T05:48:37;5.63;;;4.93;;
55603;SDS011;41468;48.838;9.330;2023-05-02T05:51:03;5.27;;;4.83;;
55603;SDS011;41468;48.838;9.330;2023-05-02T05:53:32;5.27;;;4.87;;
55603;SDS011;41468;48.838;9.330;2023-05-02T05:56:06;5.23;;;4.73;;
55603;SDS011;41468;48.838;9.330;2023-05-02T05:58:34;6.53;;;4.90;;
55603;SDS011;41468;48.838;9.330;2023-05-02T06:01:01;5.30;;;4.80;;
55603;SDS011;41468;48.838;9.330;2023-05-02T06:03:27;5.50;;;5.00;;
55603;SDS011;41468;48.838;9.330;2023-05-02T06:05:54;8.90;;;5.40;;
55603;SDS011;41468;48.838;9.330;2023-05-02T06:08:21;5.50;;;5.00;;
55603;SDS011;41468;48.838;9.330;2023-05-02T06:10:48;7.27;;;5.30;;
55603;SDS011;41468;48.838;9.330;2023-05-02T06:13:15;5.00;;;4.50;;
55603;SDS011;41468;48.838;9.330;2023-05-02T06:15:42;5.40;;;4.90;;
55603;SDS011;41468;48.838;9.330;2023-05-02T06:18:08;6.40;;;5.90;;
55603;SDS011;41468;48.838;9.330;2023-05-02T06:20:35;6.47;;;5.10;;
55603;SDS011;41468;48.838;9.330;2023-05-02T06:23:02;5.00;;;4.53;;
55603;SDS011;41468;48.838;9.330;2023-05-02T06:25:29;5.17;;;4.77;;
55603;SDS011;41468;48.838;9.330;2023-05-02T06:27:56;6.47;;;5.37;;
55603;SDS011;41468;48.838;9.330;2023-05-02T06:30:22;5.77;;;4.93;;
55603;SDS011;41468;48.838;9.330;2023-05-02T06:32:49;6.30;;;5.20;;
55603;SDS011;41468;48.838;9.330;2023-05-02T06:35:16;8.60;;;5.33;;
55603;SDS011;41468;48.838;9.330;2023-05-02T06:37:42;5.90;;;5.27;;
55603;SDS011;41468;48.838;9.330;2023-05-02T06:40:09;5.70;;;5.20;;
55603;SDS011;41468;48.838;9.330;2023-05-02T06:42:36;6.30;;;5.70;;
55603;SDS011;41468;48.838;9.330;2023-05-02T06:45:03;6.43;;;5.87;;
55603;SDS011;41468;48.838;9.330;2023-05-02T06:47:31;6.23;;;5.73;;
55603;SDS011;41468;48.838;9.330;2023-05-02T06:49:58;6.23;;;5.70;;
55603;SDS011;41468;48.838;9.330;2023-05-02T06:52:25;6.00;;;5.50;;
55603;SDS011;41468;48.838;9.330;2023-05-02T06:54:52;6.47;;;5.87;;
55603;SDS011;41468;48.838;9.330;2023-05-02T06:57:19;6.10;;;5.60;;
55603;SDS011;41468;48.838;9.330;2023-05-02T06:59:45;7.13;;;5.93;;
55603;SDS011;41468;48.838;9.330;2023-05-02T07:02:12;6.00;;;5.50;;
55603;SDS011;41468;48.838;9.330;2023-05-02T07:04:39;6.17;;;5.67;;
55603;SDS011;41468;48.838;9.330;2023-05-02T07:07:06;8.03;;;6.13;;
55603;SDS011;41468;48.838;9.330;2023-05-02T07:09:44;6.57;;;6.03;;
55603;SDS011;41468;48.838;9.330;2023-05-02T07:12:11;6.23;;;5.73;;
55603;SDS011;41468;48.838;9.330;2023-05-02T07:14:38;6.67;;;5.97;;
55603;SDS011;41468;48.838;9.330;2023-05-02T07:17:05;6.93;;;6.00;;
55603;SDS011;41468;48.838;9.330;2023-05-02T07:19:39;7.40;;;6.63;;
55603;SDS011;41468;48.838;9.330;2023-05-02T07:22:09;8.50;;;6.83;;
55603;SDS011;41468;48.838;9.330;2023-05-02T07:24:39;7.10;;;6.40;;
55603;SDS011;41468;48.838;9.330;2023-05-02T07:27:07;7.10;;;6.50;;
55603;SDS011;41468;48.838;9.330;2023-05-02T07:29:35;7.03;;;6.33;;
55603;SDS011;41468;48.838;9.330;2023-05-02T07:32:02;7.50;;;6.80;;
55603;SDS011;41468;48.838;9.330;2023-05-02T07:34:29;7.50;;;6.73;;
55603;SDS011;41468;48.838;9.330;2023-05-02T07:36:56;7.50;;;6.77;;
55603;SDS011;41468;48.838;9.330;2023-05-02T07:39:23;8.83;;;7.03;;
55603;SDS011;41468;48.838;9.330;2023-05-02T07:41:51;7.30;;;6.70;;
55603;SDS011;41468;48.838;9.330;2023-05-02T07:44:19;7.07;;;6.37;;
55603;SDS011;41468;48.838;9.330;2023-05-02T07:46:46;7.97;;;7.20;;
55603;SDS011;41468;48.838;9.330;2023-05-02T07:49:13;7.97;;;7.20;;
55603;SDS011;41468;48.838;9.330;2023-05-02T07:51:40;8.40;;;7.60;;
55603;SDS011;41468;48.838;9.330;2023-05-02T07:56:43;10.70;;;8.20;;
55603;SDS011;41468;48.838;9.330;2023-05-02T07:59:10;9.60;;;7.73;;
55603;SDS011;41468;48.838;9.330;2023-05-02T08:01:43;9.37;;;8.47;;
55603;SDS011;41468;48.838;9.330;2023-05-02T08:04:10;8.70;;;7.83;;
55603;SDS011;41468;48.838;9.330;2023-05-02T08:06:37;9.03;;;7.80;;
55603;SDS011;41468;48.838;9.330;2023-05-02T08:09:04;9.27;;;8.47;;
55603;SDS011;41468;48.838;9.330;2023-05-02T08:11:31;8.70;;;8.00;;
55603;SDS011;41468;48.838;9.330;2023-05-02T08:13:57;8.73;;;7.93;;
55603;SDS011;41468;48.838;9.330;2023-05-02T08:16:24;10.97;;;9.17;;
55603;SDS011;41468;48.838;9.330;2023-05-02T08:18:51;12.00;;;9.10;;
55603;SDS011;41468;48.838;9.330;2023-05-02T08:21:18;9.17;;;8.37;;
55603;SDS011;41468;48.838;9.330;2023-05-02T08:23:50;10.40;;;9.10;;
55603;SDS011;41468;48.838;9.330;2023-05-02T08:26:17;10.00;;;9.07;;
55603;SDS011;41468;48.838;9.330;2023-05-02T08:28:44;10.77;;;8.90;;
55603;SDS011;41468;48.838;9.330;2023-05-02T08:31:11;11.77;;;9.70;;
55603;SDS011;41468;48.838;9.330;2023-05-02T08:33:38;10.70;;;9.37;;
55603;SDS011;41468;48.838;9.330;2023-05-02T08:36:11;11.03;;;9.90;;
55603;SDS011;41468;48.838;9.330;2023-05-02T08:38:39;11.20;;;9.93;;
55603;SDS011;41468;48.838;9.330;2023-05-02T08:41:13;12.27;;;9.67;;
55603;SDS011;41468;48.838;9.330;2023-05-02T08:43:43;11.30;;;10.20;;
55603;SDS011;41468;48.838;9.330;2023-05-02T08:46:13;11.37;;;9.97;;
55603;SDS011;41468;48.838;9.330;2023-05-02T08:48:45;12.10;;;10.43;;
55603;SDS011;41468;48.838;9.330;2023-05-02T08:51:25;11.20;;;10.10;;
55603;SDS011;41468;48.838;9.330;2023-05-02T08:53:54;11.53;;;10.33;;
55603;SDS011;41468;48.838;9.330;2023-05-02T08:56:22;11.90;;;10.70;;
55603;SDS011;41468;48.838;9.330;2023-05-02T08:58:50;13.43;;;10.20;;
55603;SDS011;41468;48.838;9.330;2023-05-02T09:01:29;11.20;;;10.20;;
55603;SDS011;41468;48.838;9.330;2023-05-02T09:03:56;11.77;;;10.67;;
55603;SDS011;41468;48.838;9.330;2023-05-02T09:06:24;11.10;;;10.00;;
55603;SDS011;41468;48.838;9.330;2023-05-02T09:08:52;12.80;;;11.13;;
55603;SDS011;41468;48.838;9.330;2023-05-02T09:11:19;12.57;;;11.27;;
55603;SDS011;41468;48.838;9.330;2023-05-02T09:13:47;12.33;;;10.80;;
55603;SDS011;41468;48.838;9.330;2023-05-02T09:16:27;13.30;;;12.00;;
55603;SDS011;41468;48.838;9.330;2023-05-02T09:18:55;12.70;;;11.47;;
55603;SDS011;41468;48.838;9.330;2023-05-02T09:21:24;11.67;;;10.57;;
55603;SDS011;41468;48.838;9.330;2023-05-02T09:23:53;12.50;;;11.13;;
55603;SDS011;41468;48.838;9.330;2023-05-02T09:26:28;12.37;;;11.07;;
55603;SDS011;41468;48.838;9.330;2023-05-02T09:28:59;12.87;;;11.57;;
55603;SDS011;41468;48.838;9.330;2023-05-02T09:31:35;11.97;;;10.67;;
55603;SDS011;41468;48.838;9.330;2023-05-02T09:34:11;14.37;;;11.63;;
55603;SDS011;41468;48.838;9.330;2023-05-02T09:36:41;12.13;;;10.47;;
55603;SDS011;41468;48.838;9.330;2023-05-02T09:39:13;10.93;;;9.83;;
55603;SDS011;41468;48.838;9.330;2023-05-02T09:41:52;11.30;;;9.43;;
55603;SDS011;41468;48.838;9.330;2023-05-02T09:44:23;10.87;;;9.77;;
55603;SDS011;41468;48.838;9.330;2023-05-02T09:46:53;11.97;;;10.07;;
55603;SDS011;41468;48.838;9.330;2023-05-02T09:49:40;11.50;;;10.30;;
55603;SDS011;41468;48.838;9.330;2023-05-02T09:52:13;11.05;;;9.95;;
55603;SDS011;41468;48.838;9.330;2023-05-02T09:54:47;11.35;;;9.75;;
55603;SDS011;41468;48.838;9.330;2023-05-02T09:57:18;10.68;;;9.60;;
55603;SDS011;41468;48.838;9.330;2023-05-02T09:59:54;11.10;;;10.00;;
55603;SDS011;41468;48.838;9.330;2023-05-02T10:02:23;11.77;;;10.35;;
55603;SDS011;41468;48.838;9.330;2023-05-02T10:04:52;12.63;;;10.43;;
55603;SDS011;41468;48.838;9.330;2023-05-02T10:07:19;11.05;;;9.95;;
55603;SDS011;41468;48.838;9.330;2023-05-02T10:09:46;10.23;;;9.30;;
55603;SDS011;41468;48.838;9.330;2023-05-02T10:12:15;10.75;;;9.75;;
55603;SDS011;41468;48.838;9.330;2023-05-02T10:14:44;11.82;;;10.63;;
55603;SDS011;41468;48.838;9.330;2023-05-02T10:17:21;11.07;;;9.98;;
55603;SDS011;41468;48.838;9.330;2023-05-02T10:19:56;10.85;;;9.85;;
55603;SDS011;41468;48.838;9.330;2023-05-02T10:22:26;10.57;;;9.52;;
55603;SDS011;41468;48.838;9.330;2023-05-02T10:24:54;10.52;;;9.52;;
55603;SDS011;41468;48.838;9.330;2023-05-02T10:27:24;11.77;;;10.57;;
55603;SDS011;41468;48.838;9.330;2023-05-02T10:29:51;12.40;;;10.05;;
55603;SDS011;41468;48.838;9.330;2023-05-02T10:32:18;10.98;;;9.98;;
55603;SDS011;41468;48.838;9.330;2023-05-02T10:34:47;11.23;;;9.60;;
55603;SDS011;41468;48.838;9.330;2023-05-02T10:37:15;12.77;;;10.55;;
55603;SDS011;41468;48.838;9.330;2023-05-02T10:39:43;11.20;;;10.02;;
55603;SDS011;41468;48.838;9.330;2023-05-02T10:42:10;12.52;;;10.40;;
55603;SDS011;41468;48.838;9.330;2023-05-02T10:44:39;10.43;;;9.52;;
55603;SDS011;41468;48.838;9.330;2023-05-02T10:47:24;10.52;;;9.52;;
55603;SDS011;41468;48.838;9.330;2023-05-02T10:49:56;11.13;;;10.05;;
55603;SDS011;41468;48.838;9.330;2023-05-02T11:00:25;12.43;;;11.18;;
55603;SDS011;41468;48.838;9.330;2023-05-02T11:02:55;12.30;;;11.10;;
55603;SDS011;41468;48.838;9.330;2023-05-02T11:05:22;14.65;;;11.48;;
55603;SDS011;41468;48.838;9.330;2023-05-02T11:10:45;10.50;;;9.55;;
55603;SDS011;41468;48.838;9.330;2023-05-02T11:13:12;11.00;;;9.90;;
55603;SDS011;41468;48.838;9.330;2023-05-02T11:20:33;15.00;;;10.40;;
55603;SDS011;41468;48.838;9.330;2023-05-02T11:25:44;13.52;;;10.27;;
55603;SDS011;41468;48.838;9.330;2023-05-02T11:34:02;11.45;;;10.45;;
55603;SDS011;41468;48.838;9.330;2023-05-02T11:36:30;11.00;;;9.93;;
55603;SDS011;41468;48.838;9.330;2023-05-02T11:38:59;11.82;;;10.73;;
55603;SDS011;41468;48.838;9.330;2023-05-02T11:41:38;11.38;;;10.35;;
55603;SDS011;41468;48.838;9.330;2023-05-02T11:44:06;11.93;;;10.82;;
55603;SDS011;41468;48.838;9.330;2023-05-02T11:46:35;12.50;;;10.73;;
55603;SDS011;41468;48.838;9.330;2023-05-02T11:49:03;11.02;;;9.90;;
55603;SDS011;41468;48.838;9.330;2023-05-02T11:51:34;11.80;;;10.60;;
55603;SDS011;41468;48.838;9.330;2023-05-02T11:54:00;13.55;;;10.85;;
55603;SDS011;41468;48.838;9.330;2023-05-02T11:56:27;14.48;;;11.52;;
55603;SDS011;41468;48.838;9.330;2023-05-02T11:59:03;13.35;;;10.23;;
55603;SDS011;41468;48.838;9.330;2023-05-02T12:01:30;12.43;;;10.27;;
55603;SDS011;41468;48.838;9.330;2023-05-02T12:04:00;14.10;;;11.25;;
55603;SDS011;41468;48.838;9.330;2023-05-02T12:06:28;11.20;;;9.85;;
55603;SDS011;41468;48.838;9.330;2023-05-02T12:09:08;14.70;;;10.38;;
55603;SDS011;41468;48.838;9.330;2023-05-02T12:11:36;10.73;;;9.70;;
55603;SDS011;41468;48.838;9.330;2023-05-02T12:14:04;10.77;;;9.68;;
55603;SDS011;41468;48.838;9.330;2023-05-02T12:16:32;11.50;;;10.35;;
55603;SDS011;41468;48.838;9.330;2023-05-02T12:18:59;11.13;;;9.85;;
55603;SDS011;41468;48.838;9.330;2023-05-02T12:21:27;14.93;;;10.95;;
55603;SDS011;41468;48.838;9.330;2023-05-02T12:23:55;12.38;;;11.13;;
55603;SDS011;41468;48.838;9.330;2023-05-02T12:26:23;12.68;;;11.40;;
55603;SDS011;41468;48.838;9.330;2023-05-02T12:28:53;14.40;;;11.52;;
55603;SDS011;41468;48.838;9.330;2023-05-02T12:31:21;14.88;;;12.98;;
55603;SDS011;41468;48.838;9.330;2023-05-02T12:33:49;13.05;;;11.75;;
55603;SDS011;41468;48.838;9.330;2023-05-02T12:36:18;13.05;;;11.77;;
55603;SDS011;41468;48.838;9.330;2023-05-02T12:38:48;11.25;;;10.15;;
55603;SDS011;41468;48.838;9.330;2023-05-02T12:41:18;9.77;;;8.77;;
55603;SDS011;41468;48.838;9.330;2023-05-02T12:43:55;9.15;;;8.18;;
55603;SDS011;41468;48.838;9.330;2023-05-02T12:46:37;10.88;;;9.38;;
55603;SDS011;41468;48.838;9.330;2023-05-02T12:49:05;12.90;;;11.50;;
55603;SDS011;41468;48.838;9.330;2023-05-02T12:51:35;14.98;;;12.95;;
55603;SDS011;41468;48.838;9.330;2023-05-02T12:54:02;14.65;;;13.15;;
55603;SDS011;41468;48.838;9.330;2023-05-02T12:56:30;16.35;;;14.50;;
55603;SDS011;41468;48.838;9.330;2023-05-02T12:59:04;18.42;;;15.00;;
55603;SDS011;41468;48.838;9.330;2023-05-02T13:01:31;16.83;;;14.45;;
55603;SDS011;41468;48.838;9.330;2023-05-02T13:03:59;17.50;;;15.52;;
55603;SDS011;41468;48.838;9.330;2023-05-02T13:06:26;17.88;;;16.00;;
55603;SDS011;41468;48.838;9.330;2023-05-02T13:08:53;16.02;;;14.07;;
55603;SDS011;41468;48.838;9.330;2023-05-02T13:11:19;19.92;;;14.43;;
55603;SDS011;41468;48.838;9.330;2023-05-02T13:13:46;15.23;;;13.57;;
55603;SDS011;41468;48.838;9.330;2023-05-02T13:16:13;15.05;;;13.45;;
55603;SDS011;41468;48.838;9.330;2023-05-02T13:18:39;14.60;;;13.10;;
55603;SDS011;41468;48.838;9.330;2023-05-02T13:21:06;15.10;;;13.25;;
55603;SDS011;41468;48.838;9.330;2023-05-02T13:23:33;16.02;;;13.05;;
55603;SDS011;41468;48.838;9.330;2023-05-02T13:26:00;13.52;;;12.23;;
55603;SDS011;41468;48.838;9.330;2023-05-02T13:28:27;16.70;;;13.60;;
55603;SDS011;41468;48.838;9.330;2023-05-02T13:30:55;18.33;;;14.20;;
55603;SDS011;41468;48.838;9.330;2023-05-02T13:33:22;15.13;;;13.43;;
55603;SDS011;41468;48.838;9.330;2023-05-02T13:35:49;15.93;;;12.85;;
55603;SDS011;41468;48.838;9.330;2023-05-02T13:38:16;12.77;;;11.48;;
55603;SDS011;41468;48.838;9.330;2023-05-02T13:40:42;14.32;;;11.13;;
55603;SDS011;41468;48.838;9.330;2023-05-02T13:43:09;11.90;;;10.75;;
55603;SDS011;41468;48.838;9.330;2023-05-02T13:45:36;11.70;;;9.93;;
55603;SDS011;41468;48.838;9.330;2023-05-02T13:48:03;11.38;;;10.13;;
55603;SDS011;41468;48.838;9.330;2023-05-02T13:50:34;10.57;;;9.48;;
55603;SDS011;41468;48.838;9.330;2023-05-02T13:53:03;12.13;;;10.93;;
55603;SDS011;41468;48.838;9.330;2023-05-02T13:55:30;12.77;;;10.70;;
55603;SDS011;41468;48.838;9.330;2023-05-02T13:57:56;11.05;;;9.55;;
55603;SDS011;41468;48.838;9.330;2023-05-02T14:00:23;10.68;;;9.57;;
55603;SDS011;41468;48.838;9.330;2023-05-02T14:02:50;10.48;;;8.77;;
55603;SDS011;41468;48.838;9.330;2023-05-02T14:05:18;10.32;;;9.20;;
55603;SDS011;41468;48.838;9.330;2023-05-02T14:07:45;10.95;;;9.68;;
55603;SDS011;41468;48.838;9.330;2023-05-02T14:10:12;9.68;;;8.75;;
55603;SDS011;41468;48.838;9.330;2023-05-02T14:12:39;8.95;;;8.05;;
55603;SDS011;41468;48.838;9.330;2023-05-02T14:15:06;7.68;;;6.97;;
55603;SDS011;41468;48.838;9.330;2023-05-02T14:17:33;10.05;;;7.95;;
55603;SDS011;41468;48.838;9.330;2023-05-02T14:20:00;13.95;;;8.57;;
55603;SDS011;41468;48.838;9.330;2023-05-02T14:22:27;8.30;;;7.45;;
55603;SDS011;41468;48.838;9.330;2023-05-02T14:24:54;10.10;;;7.50;;
55603;SDS011;41468;48.838;9.330;2023-05-02T14:27:20;8.35;;;7.55;;
55603;SDS011;41468;48.838;9.330;2023-05-02T14:29:48;8.57;;;7.13;;
55603;SDS011;41468;48.838;9.330;2023-05-02T14:32:15;9.55;;;7.85;;
55603;SDS011;41468;48.838;9.330;2023-05-02T14:34:42;11.40;;;8.00;;
55603;SDS011;41468;48.838;9.330;2023-05-02T14:37:09;10.23;;;8.35;;
55603;SDS011;41468;48.838;9.330;2023-05-02T14:39:35;9.15;;;7.35;;
55603;SDS011;41468;48.838;9.330;2023-05-02T14:42:02;9.70;;;7.53;;
55603;SDS011;41468;48.838;9.330;2023-05-02T14:44:29;8.05;;;7.25;;
55603;SDS011;41468;48.838;9.330;2023-05-02T14:46:56;8.38;;;7.47;;
55603;SDS011;41468;48.838;9.330;2023-05-02T14:49:23;8.35;;;7.10;;
55603;SDS011;41468;48.838;9.330;2023-05-02T14:51:51;9.55;;;7.32;;
55603;SDS011;41468;48.838;9.330;2023-05-02T14:54:17;11.20;;;7.80;;
55603;SDS011;41468;48.838;9.330;2023-05-02T14:56:45;11.15;;;6.95;;
55603;SDS011;41468;48.838;9.330;2023-05-02T14:59:13;9.27;;;6.35;;
55603;SDS011;41468;48.838;9.330;2023-05-02T15:01:52;7.10;;;6.40;;
55603;SDS011;41468;48.838;9.330;2023-05-02T15:04:23;9.30;;;5.75;;
55603;SDS011;41468;48.838;9.330;2023-05-02T15:06:52;7.43;;;6.45;;
55603;SDS011;41468;48.838;9.330;2023-05-02T15:09:20;7.75;;;6.57;;
55603;SDS011;41468;48.838;9.330;2023-05-02T15:11:46;7.70;;;6.93;;
55603;SDS011;41468;48.838;9.330;2023-05-02T15:14:13;10.18;;;6.60;;
55603;SDS011;41468;48.838;9.330;2023-05-02T15:16:40;8.52;;;7.40;;
55603;SDS011;41468;48.838;9.330;2023-05-02T15:19:07;9.20;;;6.05;;
55603;SDS011;41468;48.838;9.330;2023-05-02T15:21:38;10.13;;;9.10;;
55603;SDS011;41468;48.838;9.330;2023-05-02T15:24:05;6.63;;;5.97;;
55603;SDS011;41468;48.838;9.330;2023-05-02T15:26:32;6.95;;;5.65;;
55603;SDS011;41468;48.838;9.330;2023-05-02T15:28:58;7.65;;;6.18;;